Estació municipal de St. Julià de Vilatorta (Osona, E.N.Guilleries-Savassona)

Consulta les dades en temps real de l'estació municipal de St. Julià de Vilatorta





Hora UTC 04:35
Temperatura 15.9 ºC
Subsòl 10 cm 12.5 ºC
Humitat 95.3 %
Pressió 1020.2 hPa
Pluja 0.0 mm
Velocitat vent 1.6 km/h
Direcció vent SE
Radiació solar 0.0 W/m²
Fuel 11.4 %

Webcam

Dades diàries 2026-09-02



Hora UTC (hivern +1h; estiu +2h)
Temperatura (ºC) Humitat (%) Pressió (hPa) Velocitat vent (km/h) Precipitació (mm) Fuel (%) Radiació solar (W/m²)
Hora UTC Aire Subsòl 10 cm Humitat Pressió Vel. Dir. Vel. Max Dir. Intent. màx 5 min. Fuel Rad. Sol.
00:05 17.4 14.5 89.0 1020.3 1.5 S 1.5 S 0.0 8.8 0.0
00:10 17.2 14.5 89.7 1020.3 2.2 SSE 3.3 S 0.0 9.0 0.0
00:15 17.1 14.4 90.3 1020.3 2.9 SSE 5.6 S 0.0 8.2 0.1
00:20 17.2 14.1 90.6 1020.3 2.7 S 4.3 SSW 0.0 8.3 0.2
00:25 17.2 14.2 90.5 1020.4 3.2 SSE 5.1 SSE 0.0 9.1 0.1
00:30 17.3 14.3 91.1 1020.4 2.3 SSE 4.6 SSW 0.0 9.2 0.3
00:35 17.4 14.3 91.0 1020.4 1.2 SE 1.9 SE 0.0 9.2 0.2
00:40 17.4 14.1 90.5 1020.4 1.6 ESE 2.9 SE 0.0 9.3 0.0
00:45 17.3 13.9 91.3 1020.4 3.7 E 6.7 E 0.0 9.3 0.3
00:50 17.3 13.9 91.4 1020.4 4.9 E 8.0 ESE 0.0 9.4 0.3
00:55 17.4 14.0 91.2 1020.4 4.2 E 7.8 ESE 0.0 9.4 0.2
01:00 17.4 14.0 90.6 1020.3 3.5 ESE 6.0 E 0.0 9.5 0.1
01:05 17.3 14.1 90.5 1020.3 2.5 SSE 5.3 SSE 0.0 9.5 0.0
01:10 17.1 14.6 90.9 1020.3 2.9 SE 5.5 SSE 0.0 9.6 0.1
01:15 17.2 14.5 91.2 1020.4 1.2 SE 3.2 SE 0.0 9.6 0.0
01:20 17.2 14.4 91.2 1020.4 2.9 E 5.1 ESE 0.0 9.6 0.1
01:25 17.3 14.3 91.2 1020.3 3.1 SE 5.6 ESE 0.0 9.7 0.2
01:30 17.4 14.2 90.5 1020.3 3.8 ESE 5.3 E 0.0 9.7 0.2
01:35 17.4 14.1 90.4 1020.3 2.6 ESE 4.2 ESE 0.0 9.4 0.0
01:40 17.3 14.0 90.3 1020.3 3.4 E 5.2 ESE 0.0 9.7 0.0
01:45 17.1 13.9 90.6 1020.3 3.1 ESE 5.1 ESE 0.0 9.7 0.0
01:50 17.0 13.8 91.2 1020.3 2.5 E 4.3 ENE 0.0 9.9 0.1
01:55 16.9 13.7 91.6 1020.3 3.4 E 5.0 E 0.0 9.9 0.1
02:00 16.9 13.6 92.0 1020.4 2.2 SE 4.4 ESE 0.0 10.0 0.2
02:05 16.8 13.6 91.2 1020.4 2.6 SE 3.9 SE 0.0 10.0 0.0
02:10 16.6 13.8 91.5 1020.3 3.0 SSE 4.2 SSE 0.0 10.1 0.0
02:15 16.6 13.8 92.1 1020.2 2.1 SE 3.6 S 0.0 10.1 0.0
02:20 16.8 13.7 93.0 1020.2 2.4 ESE 4.4 E 0.0 10.1 0.2
02:25 16.7 13.6 92.4 1020.2 3.3 ESE 5.6 E 0.0 10.2 0.1
02:30 16.6 13.4 92.7 1020.2 3.8 E 5.9 ESE 0.0 10.2 0.0
02:35 16.6 13.6 93.1 1020.3 3.7 ENE 5.0 ENE 0.0 10.3 0.0
02:40 16.6 13.5 93.2 1020.2 2.1 SE 4.3 E 0.0 10.3 0.0
02:45 16.5 13.4 92.8 1020.3 1.8 SE 3.6 ESE 0.0 10.4 0.0
02:50 16.4 13.4 92.6 1020.3 1.6 SE 2.8 ESE 0.0 10.4 0.0
02:55 16.2 13.4 92.9 1020.3 1.6 SSE 2.7 SSE 0.0 10.4 0.0
03:00 16.2 13.5 93.0 1020.3 1.4 SE 2.7 ESE 0.0 10.5 0.0
03:05 16.1 13.3 93.3 1020.3 1.0 SE 1.6 SE 0.0 10.5 0.1
03:10 16.2 13.2 94.4 1020.3 1.9 SE 2.8 SSE 0.0 10.5 0.5
03:15 16.2 13.2 93.8 1020.3 1.8 SE 3.1 SSE 0.0 10.1 0.0
03:20 16.2 13.1 94.4 1020.3 2.7 E 4.0 ESE 0.0 10.6 0.1
03:25 16.2 13.0 94.4 1020.3 2.1 SE 3.6 ESE 0.0 10.7 0.0
03:30 16.0 13.0 93.8 1020.3 1.8 SE 3.5 SSE 0.0 10.8 0.0
03:35 15.9 13.0 94.1 1020.4 1.1 ESE 2.1 ESE 0.0 10.8 0.1
03:40 16.0 12.9 95.1 1020.4 1.5 ESE 3.0 ESE 0.0 10.8 0.2
03:45 16.1 12.7 94.9 1020.4 1.2 SSE 2.5 ESE 0.0 10.9 0.1
03:50 15.9 12.6 94.2 1020.4 1.7 S 3.3 SSE 0.0 10.9 0.0
03:55 15.7 12.7 94.2 1020.3 1.8 SE 3.5 SSE 0.0 11.0 0.0
04:00 15.8 12.7 95.1 1020.3 1.5 E 2.8 ENE 0.0 11.0 0.2
04:05 15.9 12.7 95.4 1020.2 2.0 SE 2.8 SE 0.0 11.1 0.1
04:10 15.8 12.7 95.1 1020.2 1.6 ENE 3.2 NE 0.0 10.7 0.0
04:15 15.8 12.7 95.4 1020.2 2.6 ESE 3.6 NE 0.0 11.1 0.0
04:20 15.9 12.7 95.6 1020.2 1.8 ESE 3.1 SE 0.0 11.2 0.0
04:25 15.9 12.8 95.3 1020.2 2.4 E 3.2 E 0.0 11.3 0.0
04:30 15.9 12.7 95.5 1020.2 1.9 SE 2.7 SE 0.0 11.3 0.0
04:35 15.9 12.5 95.3 1020.2 1.6 SE 3.7 SE 0.0 11.4 0.0
Màxima 17.4 14.6 95.6 1020.4 4.9 E 8.0 ESE 0.0 11.4 0.5
Mínima 15.7 12.5 89.0 1020.2 8.2
Total 0.0